Hlavní strana
METAR-TAF:

METAR-TAF

Letiště :

Dar es Salaam, Tanzanie

zeměpisná šířka: 06-52S, zeměpisná délka: 039-12E, výška: 55 m

Aktuální stav počasí

Zpráva byla vytvořena před 31 minutami, v 13:00 UTC
Východojihovýchodní vítr 10 kt
Teplota 30°C
Vlhkost vzduchu 59%
Tlak 1016 hPa
Viditelnost 10 km a více
Oblačno až skoro zataženo ve výšce 3000 ft

METAR: HTDA 171300Z 12010KT 9999 BKN030 30/21 Q1016 NOSIG

Čas: 16:31 (13:31 UTC)

Předpověď počasí

Zpráva byla vytvořena před 2 hodinami a 31 minutami, v 11:00 UTC
Předpověď platná od 17 v 12 UTC do 18 v 18 UTC
Východojihovýchodní vítr 10 kt
Viditelnost 10 km a více
Oblačno až skoro zataženo ve výšce 2500 ft
Změna
od 17 v 18 UTC do 17 v 21 UTC
Skoro jasno ve výšce 1300 ft

TAF: HTDA 171100Z 1712/1818 12010KT 9999 BKN025 BECMG 1718/1721 FEW013

Stav a předpovědi počasí z více než 4 000 letišť (zprávy METAR a TAF).

Červené a žluté tečky na mapě představují dostupné meteorologické stanice.

Když kurzor umístíte na tečku, zobrazí se název stanice.

Pak kliknutím zobrazíte stav a předpověď počasí.

Chcete-li změnit mapu, kliknutím na zelené tlačítko se znaménkem +mapu přiblížíte, kliknutím na zelené tlačítko se znaménkem – mapu oddálíte a kliknutím na zelené šipky přejdete na sousední mapy.


METAR-TAF: